Time;durP1;ratioP1;P1;durP2;ratioP2;P2;SDS_P1;SDS_P2;PMS_P1;PMS_P2;Temp;Humidity;BMP_temperature;BMP_pressure;BME280_temperature;BME280_humidity;BME280_pressure;Samples;Min_cycle;Max_cycle;Signal;HPM_P1;HPM_P2
2021/11/21 00:00:11;;;;;;;41.70;19.17;;;;;;;;;;5059706;28;20326;-74
2021/11/21 00:02:38;;;;;;;46.87;19.53;;;;;;;;;;5055388;28;20638;-73
2021/11/21 00:05:06;;;;;;;45.93;20.07;;;;;;;;;;5057740;28;20683;-73
2021/11/21 00:07:34;;;;;;;51.00;18.93;;;;;;;;;;5057099;28;20298;-76
2021/11/21 00:10:01;;;;;;;49.87;19.67;;;;;;;;;;5062658;28;20247;-75
2021/11/21 00:12:28;;;;;;;46.23;20.03;;;;;;;;;;5058595;28;20229;-75
2021/11/21 00:14:57;;;;;;;51.33;20.37;;;;;;;;;;5060126;28;20390;-76
2021/11/21 00:17:24;;;;;;;46.03;20.30;;;;;;;;;;5063261;28;20297;-76
2021/11/21 00:19:53;;;;;;;49.10;20.50;;;;;;;;;;5063451;28;20305;-76
2021/11/21 00:22:20;;;;;;;42.53;19.73;;;;;;;;;;5062542;28;21032;-76
2021/11/21 00:24:47;;;;;;;41.10;18.57;;;;;;;;;;5061985;28;20210;-76
2021/11/21 00:27:15;;;;;;;48.37;20.30;;;;;;;;;;5062195;28;20305;-76
2021/11/21 00:29:42;;;;;;;49.57;19.60;;;;;;;;;;5064077;28;20218;-75
2021/11/21 00:32:11;;;;;;;46.97;19.60;;;;;;;;;;5059724;28;20293;-76
2021/11/21 00:34:38;;;;;;;49.47;20.47;;;;;;;;;;5063208;28;20285;-75
2021/11/21 00:37:05;;;;;;;47.90;19.60;;;;;;;;;;5061633;28;20293;-76
2021/11/21 00:39:32;;;;;;;48.53;20.13;;;;;;;;;;5064765;28;20265;-76
2021/11/21 00:42:00;;;;;;;42.93;18.53;;;;;;;;;;5060385;28;20289;-76
2021/11/21 00:44:27;;;;;;;45.27;19.20;;;;;;;;;;5059290;28;20218;-75
2021/11/21 00:46:54;;;;;;;45.87;20.10;;;;;;;;;;5057327;28;20245;-76
2021/11/21 00:49:22;;;;;;;45.67;19.70;;;;;;;;;;5059876;28;20293;-75
2021/11/21 00:51:50;;;;;;;46.50;19.67;;;;;;;;;;5058132;28;20238;-76
2021/11/21 00:54:27;;;;;;;43.77;19.30;;;;;;;;;;5057464;28;20240;-75
2021/11/21 00:56:55;;;;;;;47.47;19.80;;;;;;;;;;5057890;28;20298;-76
2021/11/21 00:59:23;;;;;;;44.47;18.93;;;;;;;;;;5060247;28;20751;-75
2021/11/21 01:01:52;;;;;;;42.70;19.47;;;;;;;;;;5058116;28;20260;-75
2021/11/21 01:04:19;;;;;;;43.63;19.30;;;;;;;;;;5058940;28;20214;-76
2021/11/21 01:06:48;;;;;;;45.03;18.33;;;;;;;;;;5057924;28;20249;-74
2021/11/21 01:09:15;;;;;;;46.93;20.00;;;;;;;;;;5058319;28;20299;-75
2021/11/21 01:11:43;;;;;;;42.87;19.20;;;;;;;;;;5058008;28;20281;-75
2021/11/21 01:14:10;;;;;;;41.60;18.47;;;;;;;;;;5057316;28;20223;-75
2021/11/21 01:16:38;;;;;;;43.90;19.23;;;;;;;;;;5059797;28;20305;-74
2021/11/21 01:19:06;;;;;;;40.57;18.50;;;;;;;;;;5058439;28;20405;-75
2021/11/21 01:21:33;;;;;;;49.67;19.23;;;;;;;;;;5060512;28;20262;-75
2021/11/21 01:24:02;;;;;;;45.87;18.80;;;;;;;;;;5059824;28;20282;-75
2021/11/21 01:26:29;;;;;;;48.77;18.90;;;;;;;;;;5058741;28;20294;-75
2021/11/21 01:28:56;;;;;;;46.53;19.50;;;;;;;;;;5057047;28;20297;-75
2021/11/21 01:31:24;;;;;;;48.07;19.37;;;;;;;;;;5058837;28;20662;-75
2021/11/21 01:33:51;;;;;;;48.60;19.43;;;;;;;;;;5057629;28;20226;-76
2021/11/21 01:36:18;;;;;;;46.87;19.57;;;;;;;;;;5057711;28;20297;-75
2021/11/21 01:38:45;;;;;;;44.30;18.10;;;;;;;;;;5057794;28;20639;-76
2021/11/21 01:41:14;;;;;;;44.47;19.40;;;;;;;;;;5059548;28;20253;-76
2021/11/21 01:43:42;;;;;;;43.73;19.00;;;;;;;;;;5059377;28;20283;-75
2021/11/21 01:46:09;;;;;;;45.70;19.17;;;;;;;;;;5058152;28;20311;-75
2021/11/21 01:48:37;;;;;;;47.50;18.40;;;;;;;;;;5056963;28;20298;-75
2021/11/21 01:51:05;;;;;;;49.57;19.77;;;;;;;;;;5058965;28;20301;-75
2021/11/21 01:53:33;;;;;;;42.00;17.90;;;;;;;;;;5058373;28;20313;-75
2021/11/21 01:56:00;;;;;;;36.63;16.07;;;;;;;;;;5058778;28;20302;-76
2021/11/21 01:58:28;;;;;;;48.13;19.23;;;;;;;;;;5055518;28;20301;-75
2021/11/21 02:00:56;;;;;;;42.87;17.97;;;;;;;;;;5054026;28;20313;-75
2021/11/21 02:03:23;;;;;;;42.63;19.37;;;;;;;;;;5057593;28;20231;-76
2021/11/21 02:05:50;;;;;;;42.80;18.90;;;;;;;;;;5058034;28;20206;-76
2021/11/21 02:08:27;;;;;;;49.53;22.03;;;;;;;;;;5057137;28;20290;-76
2021/11/21 02:10:58;;;;;;;54.17;22.20;;;;;;;;;;5057771;28;20308;-76
2021/11/21 02:13:25;;;;;;;56.27;23.60;;;;;;;;;;5058893;28;20218;-75
2021/11/21 02:15:54;;;;;;;47.70;20.63;;;;;;;;;;5057147;28;20612;-76
2021/11/21 02:18:23;;;;;;;41.00;17.33;;;;;;;;;;5056532;28;20241;-76
2021/11/21 02:20:52;;;;;;;46.00;18.60;;;;;;;;;;5058585;28;20222;-76
2021/11/21 02:23:21;;;;;;;43.60;17.60;;;;;;;;;;5055421;28;20199;-76
2021/11/21 02:25:48;;;;;;;40.23;16.57;;;;;;;;;;5056078;28;20245;-77
2021/11/21 02:28:15;;;;;;;42.97;17.27;;;;;;;;;;5055833;28;20259;-76
2021/11/21 02:30:43;;;;;;;42.27;16.63;;;;;;;;;;5055390;28;20242;-76
2021/11/21 02:33:12;;;;;;;41.87;17.73;;;;;;;;;;5055436;28;20643;-75
2021/11/21 02:35:40;;;;;;;37.17;14.87;;;;;;;;;;5057577;28;20289;-76
2021/11/21 02:38:10;;;;;;;32.93;12.93;;;;;;;;;;5055171;28;20297;-76
2021/11/21 02:40:37;;;;;;;24.37;10.93;;;;;;;;;;5057894;28;20337;-76
2021/11/21 02:43:05;;;;;;;23.60;11.30;;;;;;;;;;5060035;28;20292;-76
2021/11/21 02:45:32;;;;;;;26.80;11.33;;;;;;;;;;5052635;28;20816;-76
2021/11/21 02:47:59;;;;;;;22.37;10.30;;;;;;;;;;5056342;28;20294;-75
2021/11/21 02:50:29;;;;;;;23.27;10.57;;;;;;;;;;5056351;28;20249;-75
2021/11/21 02:52:57;;;;;;;19.77;9.80;;;;;;;;;;5056036;28;20210;-74
2021/11/21 02:55:28;;;;;;;20.37;9.47;;;;;;;;;;5054203;28;20214;-76
2021/11/21 02:57:56;;;;;;;19.87;9.03;;;;;;;;;;5055157;28;20214;-76
2021/11/21 03:00:23;;;;;;;21.10;9.67;;;;;;;;;;5055699;28;20288;-75
2021/11/21 03:02:51;;;;;;;18.47;8.87;;;;;;;;;;5055766;28;20289;-75
2021/11/21 03:05:19;;;;;;;16.57;8.73;;;;;;;;;;5054658;28;20645;-76
2021/11/21 03:07:46;;;;;;;18.33;8.17;;;;;;;;;;5057023;28;20216;-75
2021/11/21 03:10:18;;;;;;;16.90;8.83;;;;;;;;;;5055625;28;20314;-75
2021/11/21 03:12:47;;;;;;;15.63;7.80;;;;;;;;;;5057761;28;21453;-75
2021/11/21 03:15:14;;;;;;;16.40;8.07;;;;;;;;;;5055545;28;20219;-77
2021/11/21 03:17:43;;;;;;;15.97;8.13;;;;;;;;;;5055858;28;20289;-75
2021/11/21 03:20:11;;;;;;;17.53;8.67;;;;;;;;;;5053392;28;20226;-76
2021/11/21 03:22:38;;;;;;;15.83;8.00;;;;;;;;;;5054714;28;20790;-76
2021/11/21 03:25:05;;;;;;;20.37;9.47;;;;;;;;;;5055922;28;20206;-76
2021/11/21 03:27:32;;;;;;;19.17;9.30;;;;;;;;;;5056400;28;20289;-75
2021/11/21 03:30:01;;;;;;;17.53;8.83;;;;;;;;;;5059174;28;20227;-75
2021/11/21 03:32:29;;;;;;;17.57;8.50;;;;;;;;;;5057699;28;20238;-75
2021/11/21 03:34:56;;;;;;;16.73;8.13;;;;;;;;;;5056307;28;20501;-76
2021/11/21 03:39:49;;;;;;;17.03;8.57;;;;;;;;;;5136424;22;20451;-75
2021/11/21 03:42:16;;;;;;;18.23;8.70;;;;;;;;;;5070395;28;20649;-75
2021/11/21 03:44:43;;;;;;;19.07;8.60;;;;;;;;;;5071007;28;20340;-76
2021/11/21 03:47:12;;;;;;;18.53;9.43;;;;;;;;;;5073949;28;20208;-76
2021/11/21 03:49:40;;;;;;;20.80;9.93;;;;;;;;;;5074154;28;20309;-76
2021/11/21 03:52:07;;;;;;;19.40;9.40;;;;;;;;;;5074879;28;20288;-76
2021/11/21 03:54:35;;;;;;;21.93;9.43;;;;;;;;;;5077303;28;20309;-77
2021/11/21 03:57:02;;;;;;;21.53;9.73;;;;;;;;;;5078027;28;20698;-77
2021/11/21 03:59:29;;;;;;;20.23;9.60;;;;;;;;;;5076542;28;20313;-78
2021/11/21 04:01:58;;;;;;;18.13;9.27;;;;;;;;;;5076412;28;20198;-78
2021/11/21 04:04:27;;;;;;;18.90;9.50;;;;;;;;;;5077028;28;20225;-78
2021/11/21 04:06:54;;;;;;;18.90;9.07;;;;;;;;;;5077954;28;20244;-78
2021/11/21 04:09:22;;;;;;;17.70;8.43;;;;;;;;;;5075892;28;20312;-77
2021/11/21 04:11:49;;;;;;;19.57;8.63;;;;;;;;;;5076053;28;20293;-77
2021/11/21 04:14:17;;;;;;;17.83;8.33;;;;;;;;;;5075718;28;20232;-77
2021/11/21 04:16:45;;;;;;;16.33;8.20;;;;;;;;;;5076864;28;20293;-77
2021/11/21 04:19:13;;;;;;;17.97;8.23;;;;;;;;;;5075950;28;20202;-78
2021/11/21 04:21:41;;;;;;;18.43;8.73;;;;;;;;;;5076262;28;20650;-78
2021/11/21 04:24:12;;;;;;;17.53;7.83;;;;;;;;;;5075268;28;20290;-77
2021/11/21 04:26:40;;;;;;;19.27;8.40;;;;;;;;;;5074967;28;20198;-77
2021/11/21 04:29:08;;;;;;;17.73;8.90;;;;;;;;;;5075692;28;20206;-78
2021/11/21 04:31:35;;;;;;;17.67;8.60;;;;;;;;;;5076663;28;20722;-77
2021/11/21 04:34:02;;;;;;;17.60;8.27;;;;;;;;;;5076297;28;20651;-77
2021/11/21 04:36:29;;;;;;;19.80;9.33;;;;;;;;;;5076700;28;20212;-78
2021/11/21 04:38:58;;;;;;;21.27;9.10;;;;;;;;;;5076071;28;20313;-78
2021/11/21 04:41:25;;;;;;;19.40;9.07;;;;;;;;;;5076102;28;20308;-78
2021/11/21 04:43:52;;;;;;;18.43;8.37;;;;;;;;;;5077947;28;20293;-78
2021/11/21 04:46:19;;;;;;;25.90;9.53;;;;;;;;;;5077998;28;20237;-78
2021/11/21 04:48:47;;;;;;;18.00;8.73;;;;;;;;;;5074323;28;20302;-77
2021/11/21 04:51:14;;;;;;;18.63;9.20;;;;;;;;;;5074635;28;20321;-76
2021/11/21 04:53:41;;;;;;;20.33;9.10;;;;;;;;;;5074277;28;20289;-78
2021/11/21 04:56:10;;;;;;;20.80;9.03;;;;;;;;;;5077182;28;20320;-77
2021/11/21 04:58:37;;;;;;;22.43;9.23;;;;;;;;;;5075993;28;20249;-76
2021/11/21 05:01:04;;;;;;;19.33;9.10;;;;;;;;;;5074176;28;20226;-77
2021/11/21 05:03:31;;;;;;;21.57;9.73;;;;;;;;;;5077134;28;20285;-77
2021/11/21 05:05:58;;;;;;;20.40;9.30;;;;;;;;;;5075679;28;20233;-76
2021/11/21 05:08:25;;;;;;;20.07;9.43;;;;;;;;;;5073843;28;20325;-77
2021/11/21 05:10:53;;;;;;;21.67;9.40;;;;;;;;;;5077431;28;20312;-77
2021/11/21 05:13:21;;;;;;;22.43;9.23;;;;;;;;;;5077567;28;20297;-76
2021/11/21 05:15:48;;;;;;;20.60;8.77;;;;;;;;;;5074930;28;20313;-77
2021/11/21 05:18:16;;;;;;;23.50;10.47;;;;;;;;;;5077183;28;20202;-77
2021/11/21 05:20:43;;;;;;;21.93;9.73;;;;;;;;;;5075453;28;20317;-77
2021/11/21 05:23:10;;;;;;;22.10;10.10;;;;;;;;;;5076804;28;20318;-77
2021/11/21 05:25:37;;;;;;;23.13;10.90;;;;;;;;;;5076764;28;20280;-77
2021/11/21 05:28:05;;;;;;;23.10;10.27;;;;;;;;;;5076353;28;20297;-77
2021/11/21 05:30:33;;;;;;;24.27;10.40;;;;;;;;;;5073211;28;20321;-77
2021/11/21 05:33:00;;;;;;;24.20;11.30;;;;;;;;;;5075912;28;20284;-76
2021/11/21 05:35:28;;;;;;;26.33;10.83;;;;;;;;;;5073663;28;20309;-77
2021/11/21 05:37:55;;;;;;;24.70;10.93;;;;;;;;;;5076382;28;20217;-77
2021/11/21 05:40:22;;;;;;;26.10;10.83;;;;;;;;;;5072406;28;20234;-77
2021/11/21 05:42:50;;;;;;;23.73;9.87;;;;;;;;;;5074312;28;20206;-76
2021/11/21 05:45:17;;;;;;;23.00;10.33;;;;;;;;;;5074431;28;20320;-77
2021/11/21 05:47:46;;;;;;;20.20;9.43;;;;;;;;;;5073947;28;20237;-77
2021/11/21 05:50:13;;;;;;;20.80;9.63;;;;;;;;;;5074750;28;20329;-77
2021/11/21 05:52:41;;;;;;;27.33;10.47;;;;;;;;;;5074628;28;20206;-77
2021/11/21 05:55:09;;;;;;;23.17;10.37;;;;;;;;;;5076119;28;20240;-77
2021/11/21 05:57:36;;;;;;;24.00;9.93;;;;;;;;;;5075535;28;20240;-76
2021/11/21 06:00:05;;;;;;;22.37;10.83;;;;;;;;;;5075701;28;20309;-77
2021/11/21 06:02:33;;;;;;;25.80;11.03;;;;;;;;;;5073853;28;20617;-76
2021/11/21 06:05:01;;;;;;;26.20;11.10;;;;;;;;;;5076451;28;20298;-76
2021/11/21 06:07:28;;;;;;;24.20;10.50;;;;;;;;;;5075659;28;20237;-76
2021/11/21 06:09:58;;;;;;;22.33;10.57;;;;;;;;;;5075891;28;20253;-76
2021/11/21 06:12:25;;;;;;;25.23;11.43;;;;;;;;;;5073620;28;20209;-76
2021/11/21 06:14:52;;;;;;;26.37;11.03;;;;;;;;;;5075657;28;20312;-77
2021/11/21 06:17:19;;;;;;;29.87;10.87;;;;;;;;;;5073945;28;20210;-77
2021/11/21 06:19:47;;;;;;;29.87;11.47;;;;;;;;;;5075179;28;20313;-76
2021/11/21 06:22:16;;;;;;;26.83;11.37;;;;;;;;;;5074184;28;20836;-76
2021/11/21 06:24:44;;;;;;;27.60;10.73;;;;;;;;;;5071652;28;20230;-77
2021/11/21 06:27:11;;;;;;;23.00;10.50;;;;;;;;;;5074275;28;20316;-77
2021/11/21 06:29:38;;;;;;;25.87;10.80;;;;;;;;;;5075216;28;20746;-77
2021/11/21 06:32:06;;;;;;;24.03;10.53;;;;;;;;;;5072956;28;20297;-77
2021/11/21 06:34:33;;;;;;;27.87;11.27;;;;;;;;;;5074199;28;20899;-77
2021/11/21 06:37:00;;;;;;;23.63;10.63;;;;;;;;;;5075362;28;20285;-76
2021/11/21 06:39:29;;;;;;;24.17;10.13;;;;;;;;;;5074217;28;20305;-76
2021/11/21 06:41:56;;;;;;;25.83;10.10;;;;;;;;;;5075831;28;20204;-76
2021/11/21 06:44:23;;;;;;;24.77;10.50;;;;;;;;;;5075124;28;20423;-75
2021/11/21 06:46:51;;;;;;;27.33;11.10;;;;;;;;;;5079056;28;20242;-76
2021/11/21 06:49:18;;;;;;;28.87;10.73;;;;;;;;;;5075456;28;20202;-76
2021/11/21 06:51:45;;;;;;;23.03;10.37;;;;;;;;;;5074974;28;20739;-75
2021/11/21 06:54:14;;;;;;;33.30;12.87;;;;;;;;;;5073479;28;20206;-76
2021/11/21 06:56:43;;;;;;;32.87;13.20;;;;;;;;;;5077521;28;20225;-75
2021/11/21 06:59:10;;;;;;;32.43;14.57;;;;;;;;;;5076425;28;20213;-75
2021/11/21 07:01:40;;;;;;;33.70;13.60;;;;;;;;;;5073604;28;20296;-75
2021/11/21 07:04:08;;;;;;;33.83;13.37;;;;;;;;;;5076572;28;20264;-76
2021/11/21 07:06:36;;;;;;;34.77;14.03;;;;;;;;;;5075601;28;20303;-75
2021/11/21 07:09:05;;;;;;;29.60;12.67;;;;;;;;;;5074884;28;20769;-76
2021/11/21 07:11:32;;;;;;;30.60;13.50;;;;;;;;;;5076742;28;20303;-75
2021/11/21 07:14:01;;;;;;;32.13;13.70;;;;;;;;;;5080138;28;20306;-75
2021/11/21 07:16:28;;;;;;;31.87;14.00;;;;;;;;;;5078328;28;20316;-76
2021/11/21 07:18:56;;;;;;;33.73;13.97;;;;;;;;;;5081149;28;20292;-76
2021/11/21 07:21:23;;;;;;;33.00;13.37;;;;;;;;;;5080800;28;20582;-75
2021/11/21 07:23:50;;;;;;;31.17;13.57;;;;;;;;;;5078182;28;20224;-75
2021/11/21 07:26:17;;;;;;;35.23;14.53;;;;;;;;;;5080041;28;20194;-75
2021/11/21 07:28:45;;;;;;;36.50;14.20;;;;;;;;;;5081437;28;20229;-75
2021/11/21 07:31:14;;;;;;;32.10;13.93;;;;;;;;;;5081150;28;20328;-75
2021/11/21 07:33:41;;;;;;;32.13;13.20;;;;;;;;;;5081491;28;20205;-76
2021/11/21 07:36:08;;;;;;;28.53;12.70;;;;;;;;;;5079897;28;20300;-75
2021/11/21 07:38:35;;;;;;;33.93;13.60;;;;;;;;;;5077423;28;20237;-76
2021/11/21 07:41:03;;;;;;;33.73;14.00;;;;;;;;;;5079525;28;20227;-75
2021/11/21 07:43:30;;;;;;;35.20;14.67;;;;;;;;;;5075931;28;20868;-75
2021/11/21 07:46:00;;;;;;;42.60;17.27;;;;;;;;;;5077971;28;20264;-75
2021/11/21 07:48:28;;;;;;;43.10;18.77;;;;;;;;;;5078013;28;20659;-74
2021/11/21 07:50:55;;;;;;;35.37;14.73;;;;;;;;;;5072906;28;20969;-75
2021/11/21 07:53:23;;;;;;;34.07;14.33;;;;;;;;;;5071401;28;20889;-76
2021/11/21 07:55:50;;;;;;;32.67;14.33;;;;;;;;;;5072133;28;20320;-74
2021/11/21 07:58:17;;;;;;;32.37;13.83;;;;;;;;;;5076013;28;20198;-76
2021/11/21 08:00:44;;;;;;;29.03;13.27;;;;;;;;;;5081069;28;20309;-75
2021/11/21 08:03:12;;;;;;;31.67;14.30;;;;;;;;;;5079958;28;20193;-75
2021/11/21 08:05:40;;;;;;;39.50;13.77;;;;;;;;;;5073315;28;20204;-75
2021/11/21 08:08:07;;;;;;;34.53;15.10;;;;;;;;;;5073950;28;20197;-76
2021/11/21 08:10:35;;;;;;;35.27;14.07;;;;;;;;;;5073473;28;20237;-74
2021/11/21 08:13:03;;;;;;;30.57;13.53;;;;;;;;;;5073101;28;20202;-75
2021/11/21 08:15:30;;;;;;;35.47;16.10;;;;;;;;;;5073288;28;20259;-75
2021/11/21 08:17:57;;;;;;;37.23;15.57;;;;;;;;;;5073301;28;20288;-75
2021/11/21 08:20:26;;;;;;;35.93;14.57;;;;;;;;;;5072539;28;20305;-74
2021/11/21 08:22:55;;;;;;;35.77;14.30;;;;;;;;;;5070824;28;20206;-75
2021/11/21 08:25:22;;;;;;;36.87;15.03;;;;;;;;;;5073778;28;20301;-75
2021/11/21 08:27:49;;;;;;;34.57;14.40;;;;;;;;;;5072326;28;20301;-75
2021/11/21 08:30:18;;;;;;;36.97;15.03;;;;;;;;;;5072299;28;20222;-74
2021/11/21 08:32:45;;;;;;;36.60;13.77;;;;;;;;;;5071281;28;20206;-73
2021/11/21 08:35:13;;;;;;;32.10;13.27;;;;;;;;;;5071797;28;20225;-75
2021/11/21 08:37:40;;;;;;;36.00;14.30;;;;;;;;;;5072385;28;20542;-75
2021/11/21 08:40:10;;;;;;;34.07;14.03;;;;;;;;;;5072515;28;20417;-75
2021/11/21 08:42:37;;;;;;;32.13;13.23;;;;;;;;;;5073253;28;20875;-75
2021/11/21 08:45:05;;;;;;;35.33;14.47;;;;;;;;;;5073429;28;20667;-75
2021/11/21 08:47:32;;;;;;;34.27;12.87;;;;;;;;;;5073200;28;20284;-76
2021/11/21 08:49:59;;;;;;;31.03;12.60;;;;;;;;;;5076191;28;20317;-75
2021/11/21 08:52:27;;;;;;;28.33;12.07;;;;;;;;;;5072863;28;20194;-75
2021/11/21 08:54:54;;;;;;;26.97;11.97;;;;;;;;;;5070549;28;20401;-74
2021/11/21 08:57:25;;;;;;;37.83;15.30;;;;;;;;;;5072962;28;20292;-75
2021/11/21 08:59:52;;;;;;;32.37;13.97;;;;;;;;;;5069937;28;20225;-75
2021/11/21 09:02:19;;;;;;;38.33;14.33;;;;;;;;;;5069966;28;20200;-75
2021/11/21 09:04:47;;;;;;;35.17;13.80;;;;;;;;;;5070923;28;20331;-74
2021/11/21 09:07:14;;;;;;;30.37;12.63;;;;;;;;;;5071402;28;20293;-75
2021/11/21 09:09:41;;;;;;;26.27;11.43;;;;;;;;;;5072161;28;20315;-75
2021/11/21 09:12:09;;;;;;;26.60;10.60;;;;;;;;;;5072837;28;20203;-74
2021/11/21 09:14:37;;;;;;;24.20;10.07;;;;;;;;;;5073405;28;20202;-75
2021/11/21 09:17:04;;;;;;;22.80;9.53;;;;;;;;;;5073536;28;20313;-75
2021/11/21 09:19:32;;;;;;;23.60;10.07;;;;;;;;;;5072950;28;20340;-76
2021/11/21 09:21:59;;;;;;;31.83;12.50;;;;;;;;;;5073378;28;20294;-76
2021/11/21 09:24:26;;;;;;;29.67;11.70;;;;;;;;;;5074306;28;20203;-76
2021/11/21 09:26:53;;;;;;;24.90;10.60;;;;;;;;;;5073689;28;22296;-76
2021/11/21 09:29:20;;;;;;;27.13;10.90;;;;;;;;;;5072337;28;20292;-76
2021/11/21 09:31:49;;;;;;;27.33;10.77;;;;;;;;;;5073343;28;20308;-76
2021/11/21 09:34:16;;;;;;;29.03;11.30;;;;;;;;;;5073172;28;20220;-75
2021/11/21 09:36:45;;;;;;;25.50;11.57;;;;;;;;;;5074330;28;20261;-76
2021/11/21 09:39:12;;;;;;;22.30;11.10;;;;;;;;;;5072117;28;20214;-75
2021/11/21 09:41:39;;;;;;;25.80;10.97;;;;;;;;;;5071853;28;20282;-75
2021/11/21 09:44:07;;;;;;;27.47;10.80;;;;;;;;;;5073296;28;20201;-76
2021/11/21 09:46:34;;;;;;;24.27;11.13;;;;;;;;;;5074324;28;20296;-76
2021/11/21 09:49:03;;;;;;;24.77;10.13;;;;;;;;;;5075266;28;20296;-76
2021/11/21 09:51:30;;;;;;;18.50;9.23;;;;;;;;;;5071861;28;20300;-76
2021/11/21 09:54:00;;;;;;;24.90;10.00;;;;;;;;;;5071245;28;20383;-75
2021/11/21 09:56:28;;;;;;;22.43;9.87;;;;;;;;;;5072360;28;20310;-76
2021/11/21 09:58:55;;;;;;;17.87;8.57;;;;;;;;;;5072802;28;20205;-76
2021/11/21 10:01:33;;;;;;;25.23;9.93;;;;;;;;;;5074063;28;20257;-76
2021/11/21 10:04:01;;;;;;;31.20;10.13;;;;;;;;;;5071138;28;20209;-76
2021/11/21 10:06:35;;;;;;;21.20;8.63;;;;;;;;;;5069959;28;20517;-76
2021/11/21 10:09:03;;;;;;;18.50;8.37;;;;;;;;;;5069897;28;20209;-76
2021/11/21 10:11:30;;;;;;;20.23;8.80;;;;;;;;;;5071077;28;20359;-75
2021/11/21 10:14:04;;;;;;;20.17;9.33;;;;;;;;;;5071872;28;20206;-76
2021/11/21 10:16:32;;;;;;;20.57;9.40;;;;;;;;;;5070829;28;20283;-76
2021/11/21 10:19:00;;;;;;;20.90;8.90;;;;;;;;;;5072242;28;20738;-76
2021/11/21 10:21:29;;;;;;;18.30;7.93;;;;;;;;;;5069444;28;20320;-74
2021/11/21 10:24:14;;;;;;;15.17;7.40;;;;;;;;;;5070882;28;20206;-76
2021/11/21 10:26:42;;;;;;;15.73;7.90;;;;;;;;;;5068923;28;20197;-76
2021/11/21 10:29:25;;;;;;;16.83;7.07;;;;;;;;;;5069772;28;21048;-75
2021/11/21 10:31:52;;;;;;;16.83;6.90;;;;;;;;;;5072457;28;20208;-75
2021/11/21 10:34:20;;;;;;;13.80;6.67;;;;;;;;;;5070564;28;20212;-76
2021/11/21 10:36:47;;;;;;;13.07;6.07;;;;;;;;;;5070581;28;20321;-76
2021/11/21 10:39:20;;;;;;;11.10;5.90;;;;;;;;;;5071613;28;20214;-76
2021/11/21 10:41:51;;;;;;;15.20;6.83;;;;;;;;;;5068653;28;20340;-76
2021/11/21 10:44:20;;;;;;;17.27;8.13;;;;;;;;;;5070891;28;20201;-76
2021/11/21 10:46:48;;;;;;;12.33;6.40;;;;;;;;;;5068220;28;20210;-74
2021/11/21 10:49:17;;;;;;;13.30;5.37;;;;;;;;;;5070241;28;20326;-75
2021/11/21 10:51:44;;;;;;;11.30;5.47;;;;;;;;;;5069505;28;21309;-76
2021/11/21 10:54:20;;;;;;;9.67;4.10;;;;;;;;;;5064653;28;20748;-75
2021/11/21 10:56:47;;;;;;;8.43;3.90;;;;;;;;;;5073027;28;20236;-78
2021/11/21 10:59:15;;;;;;;7.13;3.37;;;;;;;;;;5070128;28;20649;-75
2021/11/21 11:01:42;;;;;;;6.23;2.87;;;;;;;;;;5067453;28;20292;-75
2021/11/21 11:04:13;;;;;;;5.33;2.67;;;;;;;;;;5071576;28;20220;-76
2021/11/21 11:06:41;;;;;;;7.03;2.87;;;;;;;;;;5068552;28;20312;-77
2021/11/21 11:09:16;;;;;;;5.53;2.90;;;;;;;;;;5070689;28;20206;-75
2021/11/21 11:11:45;;;;;;;5.33;2.70;;;;;;;;;;5068595;28;20205;-76
2021/11/21 11:14:18;;;;;;;5.63;2.20;;;;;;;;;;5067108;28;20674;-77
2021/11/21 11:16:47;;;;;;;3.50;1.97;;;;;;;;;;5069799;28;20245;-76
2021/11/21 11:19:16;;;;;;;5.13;2.67;;;;;;;;;;5071809;28;20673;-77
2021/11/21 11:21:43;;;;;;;4.07;2.10;;;;;;;;;;5069488;28;20300;-76
2021/11/21 11:24:10;;;;;;;4.30;2.10;;;;;;;;;;5068614;28;20289;-77
2021/11/21 11:26:37;;;;;;;3.77;2.00;;;;;;;;;;5070092;28;20337;-77
2021/11/21 11:29:09;;;;;;;3.80;2.20;;;;;;;;;;5064221;28;20890;-74
2021/11/21 11:31:37;;;;;;;3.87;1.90;;;;;;;;;;5068073;28;20237;-75
2021/11/21 11:34:05;;;;;;;5.50;2.27;;;;;;;;;;5069213;28;20201;-76
2021/11/21 11:36:33;;;;;;;3.60;2.07;;;;;;;;;;5069855;28;20221;-76
2021/11/21 11:39:02;;;;;;;3.67;1.93;;;;;;;;;;5064696;28;20233;-76
2021/11/21 11:41:30;;;;;;;4.33;2.70;;;;;;;;;;5070749;28;20229;-76
2021/11/21 11:43:58;;;;;;;6.00;3.90;;;;;;;;;;5068362;28;20213;-75
2021/11/21 11:46:28;;;;;;;4.53;2.27;;;;;;;;;;5068800;28;20617;-76
2021/11/21 11:48:57;;;;;;;2.17;1.80;;;;;;;;;;5070466;28;20602;-75
2021/11/21 11:51:49;;;;;;;3.03;1.77;;;;;;;;;;5066480;28;20365;-74
2021/11/21 11:54:23;;;;;;;2.03;1.37;;;;;;;;;;5065200;28;20205;-73
2021/11/21 11:56:52;;;;;;;2.20;1.60;;;;;;;;;;5071040;28;20221;-73
2021/11/21 11:59:25;;;;;;;4.30;1.70;;;;;;;;;;5074421;28;21687;-74
2021/11/21 12:01:54;;;;;;;6.97;2.47;;;;;;;;;;5075812;28;20233;-75
2021/11/21 12:04:40;;;;;;;2.03;1.47;;;;;;;;;;5075805;28;20199;-76
2021/11/21 12:07:21;;;;;;;2.73;1.50;;;;;;;;;;5076975;28;20739;-74
2021/11/21 12:09:57;;;;;;;3.13;1.90;;;;;;;;;;5075138;28;20319;-73
2021/11/21 12:12:44;;;;;;;7.93;4.50;;;;;;;;;;5074667;28;20323;-77
2021/11/21 12:15:26;;;;;;;4.93;3.17;;;;;;;;;;5073614;28;20206;-73
2021/11/21 12:17:55;;;;;;;11.07;6.80;;;;;;;;;;5073436;28;20232;-75
2021/11/21 12:20:37;;;;;;;6.07;3.83;;;;;;;;;;5072866;28;20221;-73
2021/11/21 12:23:04;;;;;;;13.03;7.70;;;;;;;;;;5067778;28;20209;-74
2021/11/21 12:25:31;;;;;;;4.20;2.80;;;;;;;;;;5069465;28;20206;-74
2021/11/21 12:27:59;;;;;;;3.10;1.90;;;;;;;;;;5068920;28;20554;-74
2021/11/21 12:30:28;;;;;;;2.30;1.40;;;;;;;;;;5075031;28;20222;-76
2021/11/21 12:32:58;;;;;;;2.10;1.37;;;;;;;;;;5073050;28;20698;-76
2021/11/21 12:35:27;;;;;;;2.00;1.50;;;;;;;;;;5072137;28;20289;-76
2021/11/21 12:37:55;;;;;;;5.13;3.60;;;;;;;;;;5072127;28;20222;-72
2021/11/21 12:40:24;;;;;;;4.23;2.50;;;;;;;;;;5074968;28;20875;-76
2021/11/21 12:43:02;;;;;;;4.23;2.50;;;;;;;;;;5070094;28;21002;-76
2021/11/21 12:45:31;;;;;;;2.17;1.30;;;;;;;;;;5076132;28;20296;-74
2021/11/21 12:48:01;;;;;;;2.60;1.73;;;;;;;;;;5074238;28;20764;-76
2021/11/21 12:50:30;;;;;;;3.03;1.80;;;;;;;;;;5075450;28;20217;-76
2021/11/21 12:53:01;;;;;;;3.27;2.03;;;;;;;;;;5073531;28;20394;-75
2021/11/21 12:55:29;;;;;;;4.87;2.10;;;;;;;;;;5072921;28;20201;-76
2021/11/21 12:57:58;;;;;;;3.83;2.90;;;;;;;;;;5075459;28;20229;-76
2021/11/21 13:00:26;;;;;;;4.20;2.87;;;;;;;;;;5074632;28;20741;-76
2021/11/21 13:02:58;;;;;;;3.43;2.20;;;;;;;;;;5073813;28;20305;-74
2021/11/21 13:05:27;;;;;;;4.40;3.07;;;;;;;;;;5070865;28;20756;-76
2021/11/21 13:07:54;;;;;;;3.40;2.17;;;;;;;;;;5068877;28;20278;-76
2021/11/21 13:10:22;;;;;;;3.10;2.13;;;;;;;;;;5072317;28;20229;-76
2021/11/21 13:12:49;;;;;;;2.93;2.00;;;;;;;;;;5072352;28;20490;-76
2021/11/21 13:15:18;;;;;;;5.67;4.27;;;;;;;;;;5072999;28;20208;-75
2021/11/21 13:17:48;;;;;;;3.70;2.60;;;;;;;;;;5072671;28;20231;-75
2021/11/21 13:20:16;;;;;;;3.90;2.40;;;;;;;;;;5071771;28;20713;-76
2021/11/21 13:22:49;;;;;;;3.90;2.13;;;;;;;;;;5070598;28;20220;-76
2021/11/21 13:25:31;;;;;;;5.43;2.70;;;;;;;;;;5076682;28;20288;-76
2021/11/21 13:28:16;;;;;;;3.67;2.83;;;;;;;;;;5072262;28;20209;-78
2021/11/21 13:30:44;;;;;;;5.00;3.70;;;;;;;;;;5069723;28;20232;-78
2021/11/21 13:33:15;;;;;;;3.73;2.30;;;;;;;;;;5062392;28;20695;-78
2021/11/21 13:35:42;;;;;;;4.37;2.60;;;;;;;;;;5065503;28;20655;-77
2021/11/21 13:38:12;;;;;;;4.00;2.67;;;;;;;;;;5062657;28;20232;-78
2021/11/21 13:40:40;;;;;;;5.83;2.53;;;;;;;;;;5071717;28;20628;-78
2021/11/21 13:43:11;;;;;;;2.93;1.93;;;;;;;;;;5069540;28;20206;-78
2021/11/21 13:45:38;;;;;;;4.73;2.97;;;;;;;;;;5067164;28;20233;-78
2021/11/21 13:48:06;;;;;;;3.50;2.30;;;;;;;;;;5069076;28;20209;-78
2021/11/21 13:50:34;;;;;;;5.73;3.00;;;;;;;;;;5077097;28;20229;-78
2021/11/21 13:53:01;;;;;;;4.03;2.77;;;;;;;;;;5077302;28;20251;-79
2021/11/21 13:55:30;;;;;;;7.03;2.93;;;;;;;;;;5079033;28;20297;-78
2021/11/21 13:58:00;;;;;;;8.50;3.43;;;;;;;;;;5079343;28;20218;-78
2021/11/21 14:00:29;;;;;;;5.53;3.27;;;;;;;;;;5078304;28;22180;-78
2021/11/21 14:02:58;;;;;;;4.17;2.57;;;;;;;;;;5072580;28;20225;-78
2021/11/21 14:05:26;;;;;;;4.90;2.73;;;;;;;;;;5071758;28;20665;-78
2021/11/21 14:07:56;;;;;;;7.50;5.00;;;;;;;;;;5071953;28;20288;-75
2021/11/21 14:10:24;;;;;;;6.47;4.30;;;;;;;;;;5068647;28;20691;-76
2021/11/21 14:12:53;;;;;;;5.30;3.50;;;;;;;;;;5070005;28;20395;-76
2021/11/21 14:15:21;;;;;;;5.47;3.40;;;;;;;;;;5076209;28;20232;-75
2021/11/21 14:17:50;;;;;;;4.07;2.60;;;;;;;;;;5075840;28;20222;-75
2021/11/21 14:20:30;;;;;;;3.80;2.30;;;;;;;;;;5074665;28;20217;-75
2021/11/21 14:23:01;;;;;;;4.67;2.77;;;;;;;;;;5071089;28;20231;-75
2021/11/21 14:25:29;;;;;;;4.30;2.87;;;;;;;;;;5078184;28;20294;-74
2021/11/21 14:28:03;;;;;;;4.70;3.30;;;;;;;;;;5073104;28;20293;-74
2021/11/21 14:30:31;;;;;;;13.53;7.20;;;;;;;;;;5072895;28;20229;-75
2021/11/21 14:33:12;;;;;;;11.17;6.93;;;;;;;;;;5074754;28;20304;-74
2021/11/21 14:35:42;;;;;;;8.57;5.80;;;;;;;;;;5074569;28;20197;-74